sensor_id;sensor_type;location;lat;lon;timestamp;pressure;altitude;pressure_sealevel;temperature;humidity
21779;BME280;11050;52.222;20.916;2023-08-12T00:01:51;100781.72;;;15.21;90.37
21779;BME280;11050;52.222;20.916;2023-08-12T00:04:17;100779.25;;;15.20;91.04
21779;BME280;11050;52.222;20.916;2023-08-12T00:06:43;100777.03;;;15.17;91.83
21779;BME280;11050;52.222;20.916;2023-08-12T00:09:09;100774.78;;;15.14;92.41
21779;BME280;11050;52.222;20.916;2023-08-12T00:11:40;100781.72;;;15.11;92.74
21779;BME280;11050;52.222;20.916;2023-08-12T00:14:06;100779.75;;;15.07;92.37
21779;BME280;11050;52.222;20.916;2023-08-12T00:16:32;100782.81;;;15.05;92.98
21779;BME280;11050;52.222;20.916;2023-08-12T00:18:58;100783.38;;;15.02;92.93
21779;BME280;11050;52.222;20.916;2023-08-12T00:21:25;100782.22;;;14.98;93.11
21779;BME280;11050;52.222;20.916;2023-08-12T00:23:51;100786.09;;;14.97;93.20
21779;BME280;11050;52.222;20.916;2023-08-12T00:26:17;100788.28;;;14.95;94.46
21779;BME280;11050;52.222;20.916;2023-08-12T00:28:42;100783.03;;;14.94;95.29
21779;BME280;11050;52.222;20.916;2023-08-12T00:31:08;100788.00;;;14.92;95.76
21779;BME280;11050;52.222;20.916;2023-08-12T00:33:34;100776.66;;;14.88;95.86
21779;BME280;11050;52.222;20.916;2023-08-12T00:36:00;100780.78;;;14.86;96.11
21779;BME280;11050;52.222;20.916;2023-08-12T00:38:26;100788.78;;;14.82;96.69
21779;BME280;11050;52.222;20.916;2023-08-12T00:40:51;100771.63;;;14.75;96.17
21779;BME280;11050;52.222;20.916;2023-08-12T00:43:17;100786.00;;;14.77;96.01
21779;BME280;11050;52.222;20.916;2023-08-12T00:45:44;100787.66;;;14.73;96.77
21779;BME280;11050;52.222;20.916;2023-08-12T00:48:10;100784.59;;;14.70;96.92
21779;BME280;11050;52.222;20.916;2023-08-12T00:50:37;100779.34;;;14.68;96.86
21779;BME280;11050;52.222;20.916;2023-08-12T00:53:04;100781.75;;;14.60;97.03
21779;BME280;11050;52.222;20.916;2023-08-12T00:55:36;100773.19;;;14.61;96.87
21779;BME280;11050;52.222;20.916;2023-08-12T00:58:03;100770.97;;;14.58;97.81
21779;BME280;11050;52.222;20.916;2023-08-12T01:00:30;100779.00;;;14.60;97.36
21779;BME280;11050;52.222;20.916;2023-08-12T01:02:57;100779.53;;;14.57;96.73
21779;BME280;11050;52.222;20.916;2023-08-12T01:05:23;100777.63;;;14.57;97.47
21779;BME280;11050;52.222;20.916;2023-08-12T01:07:49;100776.22;;;14.55;97.30
21779;BME280;11050;52.222;20.916;2023-08-12T01:10:16;100774.81;;;14.52;97.83
21779;BME280;11050;52.222;20.916;2023-08-12T01:12:53;100774.25;;;14.50;97.48
21779;BME280;11050;52.222;20.916;2023-08-12T01:15:21;100780.31;;;14.47;98.24
21779;BME280;11050;52.222;20.916;2023-08-12T01:17:50;100776.16;;;14.45;97.52
21779;BME280;11050;52.222;20.916;2023-08-12T01:20:21;100773.38;;;14.40;98.02
21779;BME280;11050;52.222;20.916;2023-08-12T01:23:13;100766.72;;;14.41;98.19
21779;BME280;11050;52.222;20.916;2023-08-12T01:25:39;100775.56;;;14.38;98.59
21779;BME280;11050;52.222;20.916;2023-08-12T01:28:06;100765.84;;;14.30;99.03
21779;BME280;11050;52.222;20.916;2023-08-12T01:30:39;100776.63;;;14.32;99.19
21779;BME280;11050;52.222;20.916;2023-08-12T01:33:16;100772.47;;;14.29;99.37
21779;BME280;11050;52.222;20.916;2023-08-12T01:36:22;100764.94;;;14.24;99.14
21779;BME280;11050;52.222;20.916;2023-08-12T01:38:51;100766.88;;;14.24;99.65
21779;BME280;11050;52.222;20.916;2023-08-12T01:41:23;100771.81;;;14.22;99.58
21779;BME280;11050;52.222;20.916;2023-08-12T01:43:49;100764.28;;;14.12;99.34
21779;BME280;11050;52.222;20.916;2023-08-12T01:46:15;100778.19;;;14.17;99.02
21779;BME280;11050;52.222;20.916;2023-08-12T01:48:41;100776.22;;;14.18;99.19
21779;BME280;11050;52.222;20.916;2023-08-12T01:51:07;100773.22;;;14.19;98.79
21779;BME280;11050;52.222;20.916;2023-08-12T01:53:33;100770.44;;;14.19;98.55
21779;BME280;11050;52.222;20.916;2023-08-12T01:55:58;100771.25;;;14.20;97.89
21779;BME280;11050;52.222;20.916;2023-08-12T01:58:24;100773.22;;;14.19;97.69
21779;BME280;11050;52.222;20.916;2023-08-12T02:00:52;100766.53;;;14.15;98.02
21779;BME280;11050;52.222;20.916;2023-08-12T02:03:18;100771.53;;;14.18;97.75
21779;BME280;11050;52.222;20.916;2023-08-12T02:05:44;100772.38;;;14.19;97.36
21779;BME280;11050;52.222;20.916;2023-08-12T02:08:09;100771.53;;;14.18;96.91
21779;BME280;11050;52.222;20.916;2023-08-12T02:10:35;100769.59;;;14.19;97.29
21779;BME280;11050;52.222;20.916;2023-08-12T02:13:02;100775.13;;;14.19;98.02
21779;BME280;11050;52.222;20.916;2023-08-12T02:15:28;100766.53;;;14.15;98.17
21779;BME280;11050;52.222;20.916;2023-08-12T02:17:54;100771.81;;;14.17;97.68
21779;BME280;11050;52.222;20.916;2023-08-12T02:20:20;100764.06;;;14.14;97.50
21779;BME280;11050;52.222;20.916;2023-08-12T02:22:46;100764.56;;;14.11;97.58
21779;BME280;11050;52.222;20.916;2023-08-12T02:25:11;100773.44;;;14.13;98.24
21779;BME280;11050;52.222;20.916;2023-08-12T02:27:37;100773.69;;;14.11;97.44
21779;BME280;11050;52.222;20.916;2023-08-12T02:30:04;100773.97;;;14.10;97.29
21779;BME280;11050;52.222;20.916;2023-08-12T02:32:30;100776.16;;;14.08;97.64
21779;BME280;11050;52.222;20.916;2023-08-12T02:34:56;100766.75;;;14.04;97.78
21779;BME280;11050;52.222;20.916;2023-08-12T02:37:22;100762.63;;;14.06;98.08
21779;BME280;11050;52.222;20.916;2023-08-12T02:39:47;100773.91;;;14.05;98.44
21779;BME280;11050;52.222;20.916;2023-08-12T02:42:13;100770.34;;;14.04;98.50
21779;BME280;11050;52.222;20.916;2023-08-12T02:44:39;100767.81;;;14.03;98.81
21779;BME280;11050;52.222;20.916;2023-08-12T02:47:05;100767.81;;;14.03;98.48
21779;BME280;11050;52.222;20.916;2023-08-12T02:49:30;100775.31;;;14.02;98.26
21779;BME280;11050;52.222;20.916;2023-08-12T02:51:56;100770.84;;;14.01;98.24
21779;BME280;11050;52.222;20.916;2023-08-12T02:54:22;100777.75;;;13.99;97.17
21779;BME280;11050;52.222;20.916;2023-08-12T02:56:49;100782.75;;;14.02;97.27
21779;BME280;11050;52.222;20.916;2023-08-12T02:59:15;100776.34;;;13.96;97.11
21779;BME280;11050;52.222;20.916;2023-08-12T03:01:42;100791.88;;;14.02;96.39
21779;BME280;11050;52.222;20.916;2023-08-12T03:04:08;100786.59;;;14.01;96.40
21779;BME280;11050;52.222;20.916;2023-08-12T03:06:33;100791.31;;;14.00;96.98
21779;BME280;11050;52.222;20.916;2023-08-12T03:08:59;100774.63;;;13.90;97.12
21779;BME280;11050;52.222;20.916;2023-08-12T03:11:25;100787.69;;;14.00;98.05
21779;BME280;11050;52.222;20.916;2023-08-12T03:13:51;100794.88;;;14.01;98.17
21779;BME280;11050;52.222;20.916;2023-08-12T03:16:16;100786.06;;;13.99;98.18
21779;BME280;11050;52.222;20.916;2023-08-12T03:18:42;100793.81;;;14.02;98.29
21779;BME280;11050;52.222;20.916;2023-08-12T03:21:08;100797.66;;;14.01;98.62
21779;BME280;11050;52.222;20.916;2023-08-12T03:23:35;100792.97;;;14.01;98.41
21779;BME280;11050;52.222;20.916;2023-08-12T03:26:01;100795.72;;;14.01;98.82
21779;BME280;11050;52.222;20.916;2023-08-12T03:28:27;100804.00;;;14.01;98.71
21779;BME280;11050;52.222;20.916;2023-08-12T03:30:53;100800.97;;;14.03;97.90
21779;BME280;11050;52.222;20.916;2023-08-12T03:33:19;100799.91;;;14.04;97.97
21779;BME280;11050;52.222;20.916;2023-08-12T03:35:46;100798.78;;;14.05;98.87
21779;BME280;11050;52.222;20.916;2023-08-12T03:38:13;100808.75;;;14.06;99.04
21779;BME280;11050;52.222;20.916;2023-08-12T03:40:40;100809.03;;;14.04;98.93
21779;BME280;11050;52.222;20.916;2023-08-12T03:43:06;100807.91;;;14.05;99.13
21779;BME280;11050;52.222;20.916;2023-08-12T03:45:31;100806.88;;;14.11;99.08
21779;BME280;11050;52.222;20.916;2023-08-12T03:47:57;100805.53;;;14.14;99.38
21779;BME280;11050;52.222;20.916;2023-08-12T03:50:23;100802.47;;;14.15;98.95
21779;BME280;11050;52.222;20.916;2023-08-12T03:52:48;100806.69;;;14.23;98.63
21779;BME280;11050;52.222;20.916;2023-08-12T03:55:14;100808.66;;;14.27;98.20
21779;BME280;11050;52.222;20.916;2023-08-12T03:57:40;100802.91;;;14.29;97.36
21779;BME280;11050;52.222;20.916;2023-08-12T04:00:06;100800.19;;;14.39;96.93
21779;BME280;11050;52.222;20.916;2023-08-12T04:02:34;100806.00;;;14.43;97.11
21779;BME280;11050;52.222;20.916;2023-08-12T04:04:59;100803.28;;;14.48;95.96
21779;BME280;11050;52.222;20.916;2023-08-12T04:07:25;100815.78;;;14.55;95.24
21779;BME280;11050;52.222;20.916;2023-08-12T04:09:52;100805.00;;;14.59;95.01
21779;BME280;11050;52.222;20.916;2023-08-12T04:12:18;100808.94;;;14.68;93.92
21779;BME280;11050;52.222;20.916;2023-08-12T04:14:44;100810.91;;;14.77;93.46
21779;BME280;11050;52.222;20.916;2023-08-12T04:17:09;100804.88;;;14.85;92.46
21779;BME280;11050;52.222;20.916;2023-08-12T04:19:35;100806.84;;;14.95;91.81
21779;BME280;11050;52.222;20.916;2023-08-12T04:22:01;100804.38;;;15.03;91.39
21779;BME280;11050;52.222;20.916;2023-08-12T04:24:26;100808.28;;;15.12;90.92
21779;BME280;11050;52.222;20.916;2023-08-12T04:26:52;100805.00;;;15.20;90.78
21779;BME280;11050;52.222;20.916;2023-08-12T04:29:18;100813.59;;;15.29;89.54
21779;BME280;11050;52.222;20.916;2023-08-12T04:31:43;100807.53;;;15.37;89.12
21779;BME280;11050;52.222;20.916;2023-08-12T04:34:09;100812.03;;;15.48;88.25
21779;BME280;11050;52.222;20.916;2023-08-12T04:36:35;100810.97;;;15.59;87.32
21779;BME280;11050;52.222;20.916;2023-08-12T04:39:01;100812.66;;;15.70;86.28
21779;BME280;11050;52.222;20.916;2023-08-12T04:41:26;100801.28;;;15.82;85.12
21779;BME280;11050;52.222;20.916;2023-08-12T04:43:52;100801.84;;;15.94;84.70
21779;BME280;11050;52.222;20.916;2023-08-12T04:46:18;100807.94;;;16.06;83.94
21779;BME280;11050;52.222;20.916;2023-08-12T04:48:43;100817.09;;;16.17;82.70
21779;BME280;11050;52.222;20.916;2023-08-12T04:51:09;100811.81;;;16.30;80.90
21779;BME280;11050;52.222;20.916;2023-08-12T04:53:35;100812.59;;;16.41;79.99
21779;BME280;11050;52.222;20.916;2023-08-12T04:56:01;100799.88;;;16.50;79.01
21779;BME280;11050;52.222;20.916;2023-08-12T04:58:27;100805.91;;;16.67;78.02
21779;BME280;11050;52.222;20.916;2023-08-12T05:00:53;100795.09;;;16.75;77.16
21779;BME280;11050;52.222;20.916;2023-08-12T05:03:19;100811.13;;;16.93;76.06
21779;BME280;11050;52.222;20.916;2023-08-12T05:05:52;100797.75;;;17.05;76.25
21779;BME280;11050;52.222;20.916;2023-08-12T05:08:18;100799.63;;;17.20;74.54
21779;BME280;11050;52.222;20.916;2023-08-12T05:10:47;100790.69;;;17.28;74.12
21779;BME280;11050;52.222;20.916;2023-08-12T05:13:13;100800.59;;;17.44;73.61
21779;BME280;11050;52.222;20.916;2023-08-12T05:15:39;100805.81;;;17.61;73.00
21779;BME280;11050;52.222;20.916;2023-08-12T05:18:05;100801.25;;;17.75;72.09
21779;BME280;11050;52.222;20.916;2023-08-12T05:20:31;100808.66;;;17.89;71.08
21779;BME280;11050;52.222;20.916;2023-08-12T05:22:57;100796.59;;;17.99;70.59
21779;BME280;11050;52.222;20.916;2023-08-12T05:25:23;100797.31;;;18.15;69.75
21779;BME280;11050;52.222;20.916;2023-08-12T05:27:49;100797.19;;;18.30;68.77
21779;BME280;11050;52.222;20.916;2023-08-12T05:30:15;100799.53;;;18.46;68.10
21779;BME280;11050;52.222;20.916;2023-08-12T05:32:41;100792.16;;;18.60;67.94
21779;BME280;11050;52.222;20.916;2023-08-12T05:35:07;100796.97;;;18.78;66.98
21779;BME280;11050;52.222;20.916;2023-08-12T05:37:33;100791.22;;;18.93;66.11
21779;BME280;11050;52.222;20.916;2023-08-12T05:39:59;100797.97;;;19.11;65.63
21779;BME280;11050;52.222;20.916;2023-08-12T05:42:24;100795.28;;;19.25;65.07
21779;BME280;11050;52.222;20.916;2023-08-12T05:44:50;100797.34;;;19.38;64.28
21779;BME280;11050;52.222;20.916;2023-08-12T05:47:16;100798.25;;;19.52;63.97
21779;BME280;11050;52.222;20.916;2023-08-12T05:49:42;100793.28;;;19.67;64.76
21779;BME280;11050;52.222;20.916;2023-08-12T05:52:08;100795.84;;;19.82;64.56
21779;BME280;11050;52.222;20.916;2023-08-12T05:54:33;100784.22;;;19.94;64.51
21779;BME280;11050;52.222;20.916;2023-08-12T05:56:59;100789.22;;;20.11;63.76
21779;BME280;11050;52.222;20.916;2023-08-12T05:59:25;100790.94;;;20.25;63.93
21779;BME280;11050;52.222;20.916;2023-08-12T06:01:51;100790.78;;;20.35;63.34
21779;BME280;11050;52.222;20.916;2023-08-12T06:04:17;100789.78;;;20.45;63.13
21779;BME280;11050;52.222;20.916;2023-08-12T06:06:42;100795.97;;;20.55;62.72
21779;BME280;11050;52.222;20.916;2023-08-12T06:09:08;100799.13;;;20.67;62.39
21779;BME280;11050;52.222;20.916;2023-08-12T06:11:34;100787.75;;;20.77;61.58
21779;BME280;11050;52.222;20.916;2023-08-12T06:13:59;100782.88;;;20.83;61.48
21779;BME280;11050;52.222;20.916;2023-08-12T06:16:25;100788.16;;;20.98;60.96
21779;BME280;11050;52.222;20.916;2023-08-12T06:18:52;100795.53;;;21.08;60.36
21779;BME280;11050;52.222;20.916;2023-08-12T06:21:18;100789.44;;;21.19;60.05
21779;BME280;11050;52.222;20.916;2023-08-12T06:23:43;100800.38;;;21.29;59.93
21779;BME280;11050;52.222;20.916;2023-08-12T06:26:09;100800.56;;;21.46;59.25
21779;BME280;11050;52.222;20.916;2023-08-12T06:28:35;100796.78;;;21.64;58.69
21779;BME280;11050;52.222;20.916;2023-08-12T06:31:01;100798.09;;;21.81;58.92
21779;BME280;11050;52.222;20.916;2023-08-12T06:33:26;100800.53;;;21.96;58.35
21779;BME280;11050;52.222;20.916;2023-08-12T06:35:52;100807.22;;;22.08;57.15
21779;BME280;11050;52.222;20.916;2023-08-12T06:38:18;100813.50;;;22.14;56.12
21779;BME280;11050;52.222;20.916;2023-08-12T06:40:47;100807.34;;;22.25;55.88
21779;BME280;11050;52.222;20.916;2023-08-12T06:43:13;100798.13;;;22.25;56.32
21779;BME280;11050;52.222;20.916;2023-08-12T06:45:38;100809.75;;;22.40;55.94
21779;BME280;11050;52.222;20.916;2023-08-12T06:48:04;100807.19;;;22.52;54.80
21779;BME280;11050;52.222;20.916;2023-08-12T06:50:30;100796.56;;;22.63;54.42
21779;BME280;11050;52.222;20.916;2023-08-12T06:52:57;100797.47;;;22.81;53.71
21779;BME280;11050;52.222;20.916;2023-08-12T06:55:23;100800.28;;;22.89;52.96
21779;BME280;11050;52.222;20.916;2023-08-12T06:57:48;100805.94;;;22.98;51.59
21779;BME280;11050;52.222;20.916;2023-08-12T07:00:14;100790.78;;;22.99;50.94
21779;BME280;11050;52.222;20.916;2023-08-12T07:02:40;100802.38;;;23.14;49.43
21779;BME280;11050;52.222;20.916;2023-08-12T07:05:08;100804.94;;;23.33;47.91
21779;BME280;11050;52.222;20.916;2023-08-12T07:07:34;100805.25;;;23.40;44.92
21779;BME280;11050;52.222;20.916;2023-08-12T07:10:00;100808.44;;;23.47;44.39
21779;BME280;11050;52.222;20.916;2023-08-12T07:12:26;100800.19;;;23.50;43.51
21779;BME280;11050;52.222;20.916;2023-08-12T07:14:52;100807.13;;;23.62;44.27
21779;BME280;11050;52.222;20.916;2023-08-12T07:17:17;100793.59;;;23.64;44.36
21779;BME280;11050;52.222;20.916;2023-08-12T07:19:43;100809.28;;;23.65;40.91
21779;BME280;11050;52.222;20.916;2023-08-12T07:22:09;100801.03;;;23.68;40.55
21779;BME280;11050;52.222;20.916;2023-08-12T07:24:35;100799.56;;;23.79;41.04
21779;BME280;11050;52.222;20.916;2023-08-12T07:27:01;100797.88;;;23.95;40.87
21779;BME280;11050;52.222;20.916;2023-08-12T07:29:27;100795.13;;;24.04;39.34
21779;BME280;11050;52.222;20.916;2023-08-12T07:31:53;100792.78;;;23.97;38.66
21779;BME280;11050;52.222;20.916;2023-08-12T07:34:19;100799.22;;;23.89;38.50
21779;BME280;11050;52.222;20.916;2023-08-12T07:36:44;100789.16;;;23.88;39.77
21779;BME280;11050;52.222;20.916;2023-08-12T07:39:11;100786.84;;;23.90;38.79
21779;BME280;11050;52.222;20.916;2023-08-12T07:41:36;100796.56;;;23.93;39.66
21779;BME280;11050;52.222;20.916;2023-08-12T07:44:04;100784.53;;;23.92;37.96
21779;BME280;11050;52.222;20.916;2023-08-12T07:46:30;100784.84;;;23.99;37.88
21779;BME280;11050;52.222;20.916;2023-08-12T07:48:57;100778.94;;;24.09;37.72
21779;BME280;11050;52.222;20.916;2023-08-12T07:51:22;100784.53;;;24.26;37.93
21779;BME280;11050;52.222;20.916;2023-08-12T07:53:48;100776.06;;;24.43;38.39
21779;BME280;11050;52.222;20.916;2023-08-12T07:56:14;100774.69;;;24.58;37.63
21779;BME280;11050;52.222;20.916;2023-08-12T07:58:40;100774.97;;;24.65;36.51
21779;BME280;11050;52.222;20.916;2023-08-12T08:01:05;100776.13;;;24.73;36.05
21779;BME280;11050;52.222;20.916;2023-08-12T08:03:33;100773.59;;;24.88;36.00
21779;BME280;11050;52.222;20.916;2023-08-12T08:05:59;100773.84;;;25.04;35.73
21779;BME280;11050;52.222;20.916;2023-08-12T08:08:24;100773.66;;;25.09;34.79
21779;BME280;11050;52.222;20.916;2023-08-12T08:10:50;100769.66;;;25.10;34.87
21779;BME280;11050;52.222;20.916;2023-08-12T08:13:16;100778.34;;;25.25;35.34
21779;BME280;11050;52.222;20.916;2023-08-12T08:15:41;100763.75;;;25.32;33.28
21779;BME280;11050;52.222;20.916;2023-08-12T08:18:07;100769.03;;;25.33;32.79
21779;BME280;11050;52.222;20.916;2023-08-12T08:20:33;100765.03;;;25.34;32.95
21779;BME280;11050;52.222;20.916;2023-08-12T08:22:59;100761.69;;;25.20;32.15
21779;BME280;11050;52.222;20.916;2023-08-12T08:25:25;100760.22;;;25.14;32.21
21779;BME280;11050;52.222;20.916;2023-08-12T08:27:51;100748.28;;;25.17;33.29
21779;BME280;11050;52.222;20.916;2023-08-12T08:30:17;100750.00;;;25.39;34.08
21779;BME280;11050;52.222;20.916;2023-08-12T08:32:42;100760.16;;;25.52;33.46
21779;BME280;11050;52.222;20.916;2023-08-12T08:35:08;100753.03;;;25.55;33.03
21779;BME280;11050;52.222;20.916;2023-08-12T08:37:34;100757.25;;;25.61;32.39
21779;BME280;11050;52.222;20.916;2023-08-12T08:39:59;100755.41;;;25.65;31.95
21779;BME280;11050;52.222;20.916;2023-08-12T08:42:25;100755.91;;;25.46;32.78
21779;BME280;11050;52.222;20.916;2023-08-12T08:44:53;100753.84;;;25.55;31.85
21779;BME280;11050;52.222;20.916;2023-08-12T08:47:26;100756.13;;;25.62;32.73
21779;BME280;11050;52.222;20.916;2023-08-12T08:49:55;100754.00;;;25.79;32.69
21779;BME280;11050;52.222;20.916;2023-08-12T08:52:23;100748.28;;;25.88;32.29
21779;BME280;11050;52.222;20.916;2023-08-12T08:54:50;100750.38;;;25.91;31.74
21779;BME280;11050;52.222;20.916;2023-08-12T08:57:17;100754.78;;;26.00;32.61
21779;BME280;11050;52.222;20.916;2023-08-12T08:59:43;100751.56;;;26.10;32.04
21779;BME280;11050;52.222;20.916;2023-08-12T09:02:16;100741.91;;;26.32;32.56
21779;BME280;11050;52.222;20.916;2023-08-12T09:04:46;100747.91;;;26.43;31.39
21779;BME280;11050;52.222;20.916;2023-08-12T09:07:13;100749.41;;;26.40;31.77
21779;BME280;11050;52.222;20.916;2023-08-12T09:09:46;100743.56;;;26.45;32.07
21779;BME280;11050;52.222;20.916;2023-08-12T09:12:16;100735.91;;;26.46;32.67
21779;BME280;11050;52.222;20.916;2023-08-12T09:14:43;100739.56;;;26.46;31.27
21779;BME280;11050;52.222;20.916;2023-08-12T09:17:10;100730.78;;;26.60;32.71
21779;BME280;11050;52.222;20.916;2023-08-12T09:19:36;100732.59;;;26.76;33.22
21779;BME280;11050;52.222;20.916;2023-08-12T09:22:05;100737.63;;;26.95;32.24
21779;BME280;11050;52.222;20.916;2023-08-12T09:24:32;100725.31;;;26.99;31.70
21779;BME280;11050;52.222;20.916;2023-08-12T09:26:58;100726.38;;;27.07;32.47
21779;BME280;11050;52.222;20.916;2023-08-12T09:29:34;100720.25;;;27.05;32.49
21779;BME280;11050;52.222;20.916;2023-08-12T09:32:26;100733.41;;;27.13;32.29
21779;BME280;11050;52.222;20.916;2023-08-12T09:34:54;100725.03;;;27.29;32.68
21779;BME280;11050;52.222;20.916;2023-08-12T09:37:24;100716.09;;;27.39;32.84
21779;BME280;11050;52.222;20.916;2023-08-12T09:39:51;100720.66;;;27.55;31.40
21779;BME280;11050;52.222;20.916;2023-08-12T09:42:18;100718.44;;;27.49;30.77
21779;BME280;11050;52.222;20.916;2023-08-12T09:44:45;100730.78;;;27.44;31.48
21779;BME280;11050;52.222;20.916;2023-08-12T09:47:11;100717.63;;;27.24;30.86
21779;BME280;11050;52.222;20.916;2023-08-12T09:49:38;100724.91;;;27.25;30.80
21779;BME280;11050;52.222;20.916;2023-08-12T09:52:06;100719.84;;;27.31;30.77
21779;BME280;11050;52.222;20.916;2023-08-12T09:54:33;100715.75;;;27.28;30.75
21779;BME280;11050;52.222;20.916;2023-08-12T09:57:01;100709.38;;;27.31;31.52
21779;BME280;11050;52.222;20.916;2023-08-12T09:59:32;100714.44;;;27.50;32.38
21779;BME280;11050;52.222;20.916;2023-08-12T10:01:58;100703.66;;;27.67;31.53
21779;BME280;11050;52.222;20.916;2023-08-12T10:04:31;100701.72;;;27.83;30.99
21779;BME280;11050;52.222;20.916;2023-08-12T10:07:00;100697.56;;;27.93;32.02
21779;BME280;11050;52.222;20.916;2023-08-12T10:09:26;100698.50;;;27.97;31.43
21779;BME280;11050;52.222;20.916;2023-08-12T10:11:53;100696.28;;;27.90;30.94
21779;BME280;11050;52.222;20.916;2023-08-12T10:14:20;100693.09;;;27.92;30.25
21779;BME280;11050;52.222;20.916;2023-08-12T10:16:47;100691.03;;;28.04;30.75
21779;BME280;11050;52.222;20.916;2023-08-12T10:19:16;100687.16;;;28.09;29.86
21779;BME280;11050;52.222;20.916;2023-08-12T10:21:44;100699.81;;;27.99;29.92
21779;BME280;11050;52.222;20.916;2023-08-12T10:24:11;100693.22;;;27.95;29.50
21779;BME280;11050;52.222;20.916;2023-08-12T10:26:40;100694.06;;;27.96;30.12
21779;BME280;11050;52.222;20.916;2023-08-12T10:29:06;100686.59;;;28.03;29.60
21779;BME280;11050;52.222;20.916;2023-08-12T10:31:33;100672.84;;;28.18;30.02
21779;BME280;11050;52.222;20.916;2023-08-12T10:33:59;100674.69;;;28.26;29.68
21779;BME280;11050;52.222;20.916;2023-08-12T10:36:27;100680.69;;;28.24;28.84
21779;BME280;11050;52.222;20.916;2023-08-12T10:38:53;100674.22;;;28.24;28.51
21779;BME280;11050;52.222;20.916;2023-08-12T10:41:20;100675.31;;;28.35;28.62
21779;BME280;11050;52.222;20.916;2023-08-12T10:46:32;100667.91;;;28.46;29.90
21779;BME280;11050;52.222;20.916;2023-08-12T10:49:11;100661.09;;;28.78;29.87
21779;BME280;11050;52.222;20.916;2023-08-12T10:51:51;100655.41;;;28.93;28.46
21779;BME280;11050;52.222;20.916;2023-08-12T10:54:23;100665.25;;;29.15;28.85
21779;BME280;11050;52.222;20.916;2023-08-12T10:57:07;100664.03;;;29.32;26.92
21779;BME280;11050;52.222;20.916;2023-08-12T11:02:18;100662.47;;;29.92;27.51
21779;BME280;11050;52.222;20.916;2023-08-12T11:04:55;100655.66;;;30.38;26.89
21779;BME280;11050;52.222;20.916;2023-08-12T11:07:32;100653.94;;;30.78;26.92
21779;BME280;11050;52.222;20.916;2023-08-12T11:10:24;100656.34;;;31.29;24.94
21779;BME280;11050;52.222;20.916;2023-08-12T11:12:55;100654.72;;;31.57;24.11
21779;BME280;11050;52.222;20.916;2023-08-12T11:15:51;100649.22;;;32.05;24.36
21779;BME280;11050;52.222;20.916;2023-08-12T11:18:20;100651.22;;;32.41;23.31
21779;BME280;11050;52.222;20.916;2023-08-12T11:20:49;100639.44;;;32.42;23.18
21779;BME280;11050;52.222;20.916;2023-08-12T11:23:16;100646.66;;;32.73;22.80
21779;BME280;11050;52.222;20.916;2023-08-12T11:25:43;100632.28;;;33.10;22.76
21779;BME280;11050;52.222;20.916;2023-08-12T11:28:10;100641.56;;;33.72;22.23
21779;BME280;11050;52.222;20.916;2023-08-12T11:30:36;100641.72;;;34.14;22.54
21779;BME280;11050;52.222;20.916;2023-08-12T11:33:02;100636.06;;;34.63;20.62
21779;BME280;11050;52.222;20.916;2023-08-12T11:35:29;100645.03;;;34.93;20.50
21779;BME280;11050;52.222;20.916;2023-08-12T11:37:57;100647.47;;;35.16;20.88
21779;BME280;11050;52.222;20.916;2023-08-12T11:40:25;100642.47;;;35.52;19.57
21779;BME280;11050;52.222;20.916;2023-08-12T11:42:52;100644.81;;;35.74;19.35
21779;BME280;11050;52.222;20.916;2023-08-12T11:45:23;100652.63;;;35.67;18.93
21779;BME280;11050;52.222;20.916;2023-08-12T11:47:50;100643.66;;;35.65;19.52
21779;BME280;11050;52.222;20.916;2023-08-12T11:50:25;100640.66;;;35.93;18.95
21779;BME280;11050;52.222;20.916;2023-08-12T11:52:52;100643.78;;;36.19;18.83
21779;BME280;11050;52.222;20.916;2023-08-12T11:55:19;100636.22;;;36.50;18.49
21779;BME280;11050;52.222;20.916;2023-08-12T11:57:45;100638.91;;;36.71;18.48
21779;BME280;11050;52.222;20.916;2023-08-12T12:00:13;100641.22;;;36.87;18.49
21779;BME280;11050;52.222;20.916;2023-08-12T12:02:53;100627.94;;;37.44;18.40
21779;BME280;11050;52.222;20.916;2023-08-12T12:05:30;100626.66;;;37.79;17.80
21779;BME280;11050;52.222;20.916;2023-08-12T12:07:56;100622.47;;;37.87;17.58
21779;BME280;11050;52.222;20.916;2023-08-12T12:10:33;100631.09;;;38.14;17.07
21779;BME280;11050;52.222;20.916;2023-08-12T12:13:00;100624.41;;;38.50;17.38
21779;BME280;11050;52.222;20.916;2023-08-12T12:15:26;100623.25;;;38.71;16.77
21779;BME280;11050;52.222;20.916;2023-08-12T12:17:52;100614.47;;;39.01;16.94
21779;BME280;11050;52.222;20.916;2023-08-12T12:20:19;100609.59;;;38.98;16.90
21779;BME280;11050;52.222;20.916;2023-08-12T12:22:47;100600.81;;;39.09;17.07
21779;BME280;11050;52.222;20.916;2023-08-12T12:25:16;100604.66;;;39.61;17.16
21779;BME280;11050;52.222;20.916;2023-08-12T12:27:46;100606.53;;;40.07;17.15
21779;BME280;11050;52.222;20.916;2023-08-12T12:30:13;100610.00;;;40.66;16.55
21779;BME280;11050;52.222;20.916;2023-08-12T12:32:40;100610.16;;;40.91;15.32
21779;BME280;11050;52.222;20.916;2023-08-12T12:35:06;100606.09;;;41.05;15.15
21779;BME280;11050;52.222;20.916;2023-08-12T12:37:33;100601.78;;;40.97;15.41
21779;BME280;11050;52.222;20.916;2023-08-12T12:39:59;100597.09;;;40.87;14.79
21779;BME280;11050;52.222;20.916;2023-08-12T12:42:25;100606.47;;;40.91;14.96
21779;BME280;11050;52.222;20.916;2023-08-12T12:44:51;100595.47;;;41.30;14.50
21779;BME280;11050;52.222;20.916;2023-08-12T12:47:16;100593.19;;;41.67;14.53